Time;durP1;ratioP1;P1;durP2;ratioP2;P2;SDS_P1;SDS_P2;PMS_P1;PMS_P2;Temp;Humidity;BMP_temperature;BMP_pressure;BME280_temperature;BME280_humidity;BME280_pressure;Samples;Min_cycle;Max_cycle;Signal;HPM_P1;HPM_P2
2022/06/14 00:01:08;;;;;;;6.20;2.90;;;;;;;;;;5066578;28;20205;-77
2022/06/14 00:03:38;;;;;;;6.67;3.13;;;;;;;;;;5066799;28;20221;-77
2022/06/14 00:06:10;;;;;;;4.17;2.93;;;;;;;;;;5076514;28;20263;-77
2022/06/14 00:08:38;;;;;;;6.03;3.10;;;;;;;;;;5084595;28;20192;-76
2022/06/14 00:11:07;;;;;;;3.17;2.87;;;;;;;;;;5087704;28;20196;-76
2022/06/14 00:13:35;;;;;;;3.47;2.90;;;;;;;;;;5069755;28;20273;-77
2022/06/14 00:16:02;;;;;;;3.93;3.30;;;;;;;;;;5087658;28;20246;-76
2022/06/14 00:18:29;;;;;;;3.90;3.30;;;;;;;;;;5087563;28;20731;-77
2022/06/14 00:20:57;;;;;;;3.47;3.10;;;;;;;;;;5069246;28;20263;-77
2022/06/14 00:23:24;;;;;;;4.73;3.43;;;;;;;;;;5067058;28;20236;-75
2022/06/14 00:25:53;;;;;;;5.37;3.83;;;;;;;;;;5067636;28;20251;-76
2022/06/14 00:28:21;;;;;;;5.63;4.27;;;;;;;;;;5071996;28;20838;-75
2022/06/14 00:30:51;;;;;;;8.23;4.60;;;;;;;;;;5084891;28;20655;-77
2022/06/14 00:33:18;;;;;;;6.90;5.20;;;;;;;;;;5069646;28;20233;-76
2022/06/14 00:35:45;;;;;;;6.37;4.97;;;;;;;;;;5087427;28;20201;-75
2022/06/14 00:38:13;;;;;;;8.37;5.30;;;;;;;;;;5084864;28;20201;-75
2022/06/14 00:40:42;;;;;;;10.10;5.70;;;;;;;;;;5088004;28;20216;-76
2022/06/14 00:43:13;;;;;;;8.60;5.30;;;;;;;;;;5087876;28;20590;-76
2022/06/14 00:45:41;;;;;;;6.57;4.70;;;;;;;;;;5088570;28;20663;-76
2022/06/14 00:48:20;;;;;;;5.67;4.27;;;;;;;;;;5088433;28;20209;-76
2022/06/14 00:50:48;;;;;;;6.23;3.83;;;;;;;;;;5088033;28;20470;-77
2022/06/14 00:53:19;;;;;;;5.53;3.83;;;;;;;;;;5083643;28;20225;-77
2022/06/14 00:55:50;;;;;;;6.77;3.60;;;;;;;;;;5067167;28;20553;-77
2022/06/14 00:58:22;;;;;;;13.30;8.07;;;;;;;;;;5067299;28;20569;-76
2022/06/14 01:00:52;;;;;;;4.67;3.80;;;;;;;;;;5067706;28;20635;-76
2022/06/14 01:03:24;;;;;;;5.47;3.57;;;;;;;;;;5068227;28;20313;-77
2022/06/14 01:06:06;;;;;;;6.10;3.90;;;;;;;;;;5071521;28;20201;-76
2022/06/14 01:08:38;;;;;;;5.27;3.50;;;;;;;;;;5090522;28;20283;-76
2022/06/14 01:11:07;;;;;;;6.03;4.20;;;;;;;;;;5071222;28;20205;-76
2022/06/14 01:13:35;;;;;;;5.97;3.37;;;;;;;;;;5052991;28;20279;-77
2022/06/14 01:16:03;;;;;;;4.60;3.37;;;;;;;;;;5070901;28;20205;-75
2022/06/14 01:18:30;;;;;;;3.43;3.13;;;;;;;;;;5071482;28;20213;-75
2022/06/14 01:20:58;;;;;;;4.83;3.37;;;;;;;;;;5071003;28;20205;-76
2022/06/14 01:23:25;;;;;;;5.30;3.90;;;;;;;;;;5070781;28;20353;-75
2022/06/14 01:25:54;;;;;;;6.77;4.03;;;;;;;;;;5071169;28;20288;-75
2022/06/14 01:28:24;;;;;;;7.87;5.07;;;;;;;;;;5082738;28;20201;-76
2022/06/14 01:30:52;;;;;;;5.70;3.80;;;;;;;;;;5072596;28;20227;-76
2022/06/14 01:33:20;;;;;;;10.00;5.67;;;;;;;;;;5090651;28;20274;-76
2022/06/14 01:35:50;;;;;;;5.10;3.43;;;;;;;;;;5090332;28;20209;-76
2022/06/14 01:38:18;;;;;;;3.30;3.00;;;;;;;;;;5080847;28;20213;-76
2022/06/14 01:40:46;;;;;;;4.30;3.17;;;;;;;;;;5090534;28;20212;-75
2022/06/14 01:43:32;;;;;;;3.13;2.80;;;;;;;;;;5072075;28;20225;-77
2022/06/14 01:45:59;;;;;;;3.53;2.70;;;;;;;;;;5072275;28;20205;-77
2022/06/14 01:48:31;;;;;;;3.97;3.20;;;;;;;;;;5052631;28;20205;-78
2022/06/14 01:53:57;;;;;;;4.30;2.67;;;;;;;;;;5070236;28;20731;-76
2022/06/14 01:56:25;;;;;;;4.53;3.50;;;;;;;;;;5069645;28;20216;-77
2022/06/14 01:59:27;;;;;;;4.43;3.23;;;;;;;;;;5070136;28;20209;-78
2022/06/14 02:02:04;;;;;;;4.63;2.83;;;;;;;;;;4976960;28;20244;-76
2022/06/14 02:04:39;;;;;;;4.50;3.20;;;;;;;;;;5042006;28;20206;-76
2022/06/14 02:07:06;;;;;;;3.73;3.20;;;;;;;;;;5076866;28;20204;-78
2022/06/14 02:09:42;;;;;;;21.87;11.77;;;;;;;;;;5089936;28;20193;-76
2022/06/14 02:12:12;;;;;;;9.63;5.90;;;;;;;;;;5089713;28;20251;-75
2022/06/14 02:14:49;;;;;;;4.97;3.60;;;;;;;;;;5089411;28;20213;-75
2022/06/14 02:17:28;;;;;;;6.43;3.73;;;;;;;;;;5089827;28;20205;-76
2022/06/14 02:19:59;;;;;;;7.03;4.17;;;;;;;;;;5071736;28;20677;-76
2022/06/14 02:22:36;;;;;;;8.03;4.73;;;;;;;;;;5089791;28;20227;-77
2022/06/14 02:25:13;;;;;;;5.57;3.87;;;;;;;;;;5089811;28;20207;-77
2022/06/14 02:27:52;;;;;;;5.00;3.50;;;;;;;;;;5089332;28;20658;-79
2022/06/14 02:30:22;;;;;;;6.73;4.17;;;;;;;;;;5089592;28;20466;-78
2022/06/14 02:32:52;;;;;;;5.40;3.90;;;;;;;;;;5089455;28;20729;-78
2022/06/14 02:35:21;;;;;;;5.40;4.00;;;;;;;;;;5085216;28;20232;-78
2022/06/14 02:38:01;;;;;;;5.73;3.67;;;;;;;;;;5082028;28;20712;-77
2022/06/14 02:40:49;;;;;;;6.03;2.90;;;;;;;;;;5089324;28;20686;-76
2022/06/14 02:43:27;;;;;;;4.13;3.10;;;;;;;;;;5088608;28;20710;-75
2022/06/14 02:45:57;;;;;;;3.80;2.90;;;;;;;;;;5089466;28;20279;-78
2022/06/14 02:48:27;;;;;;;4.83;3.10;;;;;;;;;;5071152;28;20201;-77
2022/06/14 02:51:02;;;;;;;4.47;2.93;;;;;;;;;;5089619;28;20543;-77
2022/06/14 02:53:39;;;;;;;5.00;3.10;;;;;;;;;;5088035;28;20224;-76
2022/06/14 02:56:14;;;;;;;6.73;3.00;;;;;;;;;;5089009;28;20205;-76
2022/06/14 02:59:00;;;;;;;3.53;3.10;;;;;;;;;;5089160;28;20201;-77
2022/06/14 03:01:33;;;;;;;5.90;3.30;;;;;;;;;;5089330;28;20768;-78
2022/06/14 03:04:04;;;;;;;5.03;3.50;;;;;;;;;;5088494;28;20229;-77
2022/06/14 03:06:35;;;;;;;4.10;3.40;;;;;;;;;;5082355;28;20202;-77
2022/06/14 03:09:14;;;;;;;8.13;3.40;;;;;;;;;;5081474;28;20809;-77
2022/06/14 03:11:41;;;;;;;4.17;3.60;;;;;;;;;;5088891;28;20686;-77
2022/06/14 03:14:18;;;;;;;8.03;5.83;;;;;;;;;;5088538;28;20240;-78
2022/06/14 03:17:09;;;;;;;13.77;8.23;;;;;;;;;;5070763;28;20246;-77
2022/06/14 03:19:39;;;;;;;10.77;6.90;;;;;;;;;;5042180;28;20477;-76
2022/06/14 03:22:10;;;;;;;5.50;4.43;;;;;;;;;;5088246;28;20482;-77
2022/06/14 03:24:47;;;;;;;3.77;3.40;;;;;;;;;;5088482;28;20205;-77
2022/06/14 03:27:18;;;;;;;3.97;3.57;;;;;;;;;;5070546;28;20204;-78
2022/06/14 03:29:59;;;;;;;5.17;3.63;;;;;;;;;;5088205;28;20246;-76
2022/06/14 03:32:36;;;;;;;7.63;3.50;;;;;;;;;;5088505;28;20236;-77
2022/06/14 03:35:11;;;;;;;3.77;3.37;;;;;;;;;;5088270;28;20201;-76
2022/06/14 03:37:39;;;;;;;4.10;3.53;;;;;;;;;;5088386;28;20204;-77
2022/06/14 03:40:08;;;;;;;3.73;3.37;;;;;;;;;;5077070;28;20708;-78
2022/06/14 03:42:37;;;;;;;4.67;3.60;;;;;;;;;;5097375;28;20286;-73
2022/06/14 03:45:07;;;;;;;4.53;3.50;;;;;;;;;;5090380;28;20658;-76
2022/06/14 03:47:35;;;;;;;5.03;3.63;;;;;;;;;;5093022;28;20225;-76
2022/06/14 03:50:14;;;;;;;4.27;3.70;;;;;;;;;;5090549;28;20205;-76
2022/06/14 03:52:49;;;;;;;6.13;3.67;;;;;;;;;;5087648;28;20232;-77
2022/06/14 03:55:25;;;;;;;4.90;4.17;;;;;;;;;;5091741;28;20212;-75
2022/06/14 03:57:59;;;;;;;7.87;4.30;;;;;;;;;;5080367;28;20605;-77
2022/06/14 04:00:26;;;;;;;4.97;3.60;;;;;;;;;;5091399;28;20220;-75
2022/06/14 04:03:06;;;;;;;5.60;3.90;;;;;;;;;;5090028;28;20518;-76
2022/06/14 04:05:48;;;;;;;5.23;4.20;;;;;;;;;;5095329;28;20252;-77
2022/06/14 04:08:31;;;;;;;5.83;4.33;;;;;;;;;;5077971;28;20196;-76
2022/06/14 04:11:01;;;;;;;4.73;3.97;;;;;;;;;;5095701;28;20209;-76
2022/06/14 04:13:38;;;;;;;5.30;4.67;;;;;;;;;;5095794;28;20224;-75
2022/06/14 04:16:13;;;;;;;6.30;4.13;;;;;;;;;;5098082;28;20207;-75
2022/06/14 04:18:50;;;;;;;6.33;4.43;;;;;;;;;;5078891;28;20212;-76
2022/06/14 04:21:27;;;;;;;5.00;4.07;;;;;;;;;;5096109;28;20227;-76
2022/06/14 04:23:57;;;;;;;5.67;3.77;;;;;;;;;;5093333;28;20237;-76
2022/06/14 04:26:40;;;;;;;8.20;4.07;;;;;;;;;;5089301;28;20250;-76
2022/06/14 04:29:11;;;;;;;4.80;4.17;;;;;;;;;;5065495;28;20198;-75
2022/06/14 04:31:40;;;;;;;6.70;5.10;;;;;;;;;;5089225;28;20216;-77
2022/06/14 04:34:08;;;;;;;7.97;5.03;;;;;;;;;;5067002;28;20217;-75
2022/06/14 04:36:45;;;;;;;4.80;4.20;;;;;;;;;;5071643;28;20224;-76
2022/06/14 04:39:15;;;;;;;5.33;4.17;;;;;;;;;;5079442;28;20192;-73
2022/06/14 04:41:47;;;;;;;7.50;4.47;;;;;;;;;;5097303;28;20402;-74
2022/06/14 04:44:22;;;;;;;5.27;4.13;;;;;;;;;;5096064;28;20224;-76
2022/06/14 04:46:58;;;;;;;6.43;3.90;;;;;;;;;;5100372;28;20649;-77
2022/06/14 04:49:25;;;;;;;5.37;4.30;;;;;;;;;;5099971;28;20544;-77
2022/06/14 04:51:59;;;;;;;7.20;5.23;;;;;;;;;;5090062;28;20644;-75
2022/06/14 04:54:28;;;;;;;9.50;5.80;;;;;;;;;;5079432;28;20212;-76
2022/06/14 04:56:58;;;;;;;18.20;10.00;;;;;;;;;;5056245;28;20666;-76
2022/06/14 04:59:30;;;;;;;7.13;4.83;;;;;;;;;;5055997;28;20217;-76
2022/06/14 05:02:00;;;;;;;5.90;4.63;;;;;;;;;;5072114;28;20607;-75
2022/06/14 05:04:37;;;;;;;7.07;5.07;;;;;;;;;;5078596;28;20233;-77
2022/06/14 05:07:31;;;;;;;8.93;4.77;;;;;;;;;;5062045;28;20201;-76
2022/06/14 05:10:06;;;;;;;6.57;4.97;;;;;;;;;;5082970;28;20193;-76
2022/06/14 05:12:48;;;;;;;6.03;4.87;;;;;;;;;;5096316;28;20311;-75
2022/06/14 05:15:20;;;;;;;6.40;3.70;;;;;;;;;;5095505;28;20611;-74
2022/06/14 05:17:47;;;;;;;6.80;4.07;;;;;;;;;;5098591;28;20200;-76
2022/06/14 05:20:20;;;;;;;4.90;3.80;;;;;;;;;;5079923;28;20209;-73
2022/06/14 05:22:48;;;;;;;9.87;4.10;;;;;;;;;;5093598;28;20225;-74
2022/06/14 05:25:15;;;;;;;4.73;3.47;;;;;;;;;;5092535;28;20205;-75
2022/06/14 05:28:04;;;;;;;4.53;3.10;;;;;;;;;;5058283;28;20213;-74
2022/06/14 05:30:35;;;;;;;4.07;3.10;;;;;;;;;;5073621;28;20702;-75
2022/06/14 05:33:17;;;;;;;3.58;2.67;;;;;;;;;;5068605;28;20228;-74
2022/06/14 05:35:44;;;;;;;3.90;2.40;;;;;;;;;;5078744;28;20200;-76
2022/06/14 05:38:12;;;;;;;3.58;2.42;;;;;;;;;;5097411;28;20168;-77
2022/06/14 05:40:44;;;;;;;3.72;2.50;;;;;;;;;;5098554;28;20197;-76
2022/06/14 05:43:24;;;;;;;4.35;2.72;;;;;;;;;;5084955;28;20324;-74
2022/06/14 05:45:56;;;;;;;4.47;2.65;;;;;;;;;;5077513;28;20259;-76
2022/06/14 05:48:30;;;;;;;5.15;2.55;;;;;;;;;;5060150;28;20609;-77
2022/06/14 05:50:58;;;;;;;6.03;2.53;;;;;;;;;;5077535;28;20212;-77
2022/06/14 05:53:39;;;;;;;4.50;2.60;;;;;;;;;;5078094;28;20229;-77
2022/06/14 05:56:26;;;;;;;4.30;2.80;;;;;;;;;;5078115;28;20209;-76
2022/06/14 05:59:14;;;;;;;4.55;2.60;;;;;;;;;;5078545;28;20223;-76
2022/06/14 06:01:51;;;;;;;3.60;2.78;;;;;;;;;;5061322;28;20223;-76
2022/06/14 06:04:31;;;;;;;2.97;2.63;;;;;;;;;;5078966;28;20316;-75
2022/06/14 06:07:05;;;;;;;5.32;2.42;;;;;;;;;;5081264;28;20200;-74
2022/06/14 06:09:38;;;;;;;4.43;2.72;;;;;;;;;;5092473;28;20634;-77
2022/06/14 06:12:09;;;;;;;4.93;2.97;;;;;;;;;;5092954;28;20290;-76
2022/06/14 06:14:39;;;;;;;5.70;3.78;;;;;;;;;;5094341;28;20490;-77
2022/06/14 06:17:10;;;;;;;3.70;2.40;;;;;;;;;;5082879;28;20217;-75
2022/06/14 06:19:42;;;;;;;4.07;2.50;;;;;;;;;;5073458;28;20581;-76
2022/06/14 06:22:14;;;;;;;6.55;2.67;;;;;;;;;;5057534;28;20197;-75
2022/06/14 06:24:41;;;;;;;6.22;2.78;;;;;;;;;;5093929;28;20236;-78
2022/06/14 06:27:16;;;;;;;5.63;2.80;;;;;;;;;;5095365;28;20711;-78
2022/06/14 06:29:48;;;;;;;4.55;2.53;;;;;;;;;;5097177;28;20277;-75
2022/06/14 06:32:16;;;;;;;8.57;3.10;;;;;;;;;;5099190;28;20231;-77
2022/06/14 06:34:44;;;;;;;3.95;2.72;;;;;;;;;;5096176;28;20209;-77
2022/06/14 06:37:16;;;;;;;5.60;3.10;;;;;;;;;;5094056;28;20213;-77
2022/06/14 06:39:49;;;;;;;4.50;2.60;;;;;;;;;;5095644;28;20665;-76
2022/06/14 06:42:25;;;;;;;6.15;2.83;;;;;;;;;;5098302;28;20224;-76
2022/06/14 06:45:13;;;;;;;4.90;2.70;;;;;;;;;;5081078;28;20319;-76
2022/06/14 06:47:43;;;;;;;7.15;3.00;;;;;;;;;;5098646;28;20221;-77
2022/06/14 06:50:25;;;;;;;6.50;3.40;;;;;;;;;;5095480;28;20210;-76
2022/06/14 06:53:11;;;;;;;5.07;2.97;;;;;;;;;;5079502;28;20225;-78
2022/06/14 06:55:45;;;;;;;5.88;2.97;;;;;;;;;;5077763;28;20210;-76
2022/06/14 06:58:18;;;;;;;6.35;2.97;;;;;;;;;;5077452;28;20281;-78
2022/06/14 07:00:47;;;;;;;4.07;2.97;;;;;;;;;;5077099;28;20201;-76
2022/06/14 07:03:21;;;;;;;4.18;2.63;;;;;;;;;;5073013;28;20225;-75
2022/06/14 07:05:54;;;;;;;7.05;3.00;;;;;;;;;;5076487;28;20679;-76
2022/06/14 07:08:31;;;;;;;6.70;2.95;;;;;;;;;;5092290;28;20231;-78
2022/06/14 07:10:59;;;;;;;8.10;3.88;;;;;;;;;;5097486;28;20200;-76
2022/06/14 07:13:30;;;;;;;4.90;3.10;;;;;;;;;;5095605;28;20229;-76
2022/06/14 07:16:05;;;;;;;4.35;2.60;;;;;;;;;;5095314;28;20209;-76
2022/06/14 07:18:45;;;;;;;5.93;3.10;;;;;;;;;;5096112;28;20205;-76
2022/06/14 07:21:23;;;;;;;4.65;3.22;;;;;;;;;;5095089;28;20760;-78
2022/06/14 07:23:54;;;;;;;9.20;3.20;;;;;;;;;;5095555;28;20254;-75
2022/06/14 07:26:25;;;;;;;5.32;3.08;;;;;;;;;;5094862;28;20204;-75
2022/06/14 07:29:00;;;;;;;5.15;2.58;;;;;;;;;;5093548;28;20264;-77
2022/06/14 07:31:45;;;;;;;7.10;2.80;;;;;;;;;;5095589;28;20230;-75
2022/06/14 07:34:13;;;;;;;8.10;2.83;;;;;;;;;;5076987;28;20205;-76
2022/06/14 07:36:50;;;;;;;4.85;2.67;;;;;;;;;;5095865;28;20322;-77
2022/06/14 07:39:23;;;;;;;6.75;3.15;;;;;;;;;;5094700;28;20561;-75
2022/06/14 07:41:57;;;;;;;6.43;2.63;;;;;;;;;;5076154;28;20232;-77
2022/06/14 07:44:30;;;;;;;5.30;2.40;;;;;;;;;;5093622;28;20236;-74
2022/06/14 07:47:19;;;;;;;4.80;2.90;;;;;;;;;;5077404;28;20197;-77
2022/06/14 07:50:26;;;;;;;4.60;2.58;;;;;;;;;;5096464;28;20197;-78
2022/06/14 07:53:01;;;;;;;5.45;2.80;;;;;;;;;;4980714;28;20236;-78
2022/06/14 07:55:33;;;;;;;4.47;2.50;;;;;;;;;;4981140;28;20203;-77
2022/06/14 07:58:07;;;;;;;5.78;2.63;;;;;;;;;;5037068;28;20215;-76
2022/06/14 08:03:31;;;;;;;6.90;2.38;;;;;;;;;;5094345;28;20678;-76
2022/06/14 08:06:01;;;;;;;6.25;3.15;;;;;;;;;;5077526;28;20654;-76
2022/06/14 08:08:32;;;;;;;5.75;2.30;;;;;;;;;;5075786;28;20659;-77
2022/06/14 08:11:04;;;;;;;4.65;2.22;;;;;;;;;;5094438;28;20242;-76
2022/06/14 08:13:35;;;;;;;5.60;2.55;;;;;;;;;;5094689;28;20640;-76
2022/06/14 08:16:03;;;;;;;3.20;2.45;;;;;;;;;;5078121;28;20266;-77
2022/06/14 08:18:44;;;;;;;5.32;2.50;;;;;;;;;;5098331;28;20219;-77
2022/06/14 08:21:14;;;;;;;3.80;2.38;;;;;;;;;;5092836;28;20228;-77
2022/06/14 08:23:44;;;;;;;4.60;2.47;;;;;;;;;;5096787;28;20305;-77
2022/06/14 08:26:21;;;;;;;4.57;2.30;;;;;;;;;;5095028;28;20570;-78
2022/06/14 08:28:52;;;;;;;4.20;2.13;;;;;;;;;;5095185;28;20712;-74
2022/06/14 08:31:22;;;;;;;4.18;2.30;;;;;;;;;;5095985;28;20200;-77
2022/06/14 08:33:57;;;;;;;6.13;2.75;;;;;;;;;;5062583;28;20732;-77
2022/06/14 08:36:27;;;;;;;4.85;2.28;;;;;;;;;;5076003;28;20221;-75
2022/06/14 08:38:58;;;;;;;4.40;2.63;;;;;;;;;;5075789;28;20705;-76
2022/06/14 08:41:25;;;;;;;8.02;3.20;;;;;;;;;;5079228;28;20200;-77
2022/06/14 08:43:56;;;;;;;5.25;2.60;;;;;;;;;;5080014;28;20236;-76
2022/06/14 08:46:49;;;;;;;8.02;4.20;;;;;;;;;;5078733;28;20204;-76
2022/06/14 08:49:41;;;;;;;6.13;2.90;;;;;;;;;;5040418;28;20214;-75
2022/06/14 08:52:12;;;;;;;4.38;2.42;;;;;;;;;;5074480;28;20348;-76
2022/06/14 08:54:50;;;;;;;6.57;2.65;;;;;;;;;;5073356;28;20210;-75
2022/06/14 08:57:21;;;;;;;5.75;2.33;;;;;;;;;;5074910;28;20205;-77
2022/06/14 08:59:48;;;;;;;8.23;2.50;;;;;;;;;;5074145;28;20217;-74
2022/06/14 09:02:15;;;;;;;4.75;2.22;;;;;;;;;;5055567;28;20232;-77
2022/06/14 09:05:01;;;;;;;5.13;2.60;;;;;;;;;;5072995;28;20233;-77
2022/06/14 09:07:44;;;;;;;4.50;2.20;;;;;;;;;;5080562;28;20197;-75
2022/06/14 09:10:44;;;;;;;4.18;2.67;;;;;;;;;;5088535;28;20201;-76
2022/06/14 09:13:20;;;;;;;4.13;2.45;;;;;;;;;;5048933;28;20278;-75
2022/06/14 09:15:58;;;;;;;4.65;2.67;;;;;;;;;;5076655;28;20204;-77
2022/06/14 09:18:32;;;;;;;5.28;2.63;;;;;;;;;;5093596;28;20732;-76
2022/06/14 09:21:02;;;;;;;4.13;2.47;;;;;;;;;;5093151;28;20209;-75
2022/06/14 09:23:44;;;;;;;5.65;2.50;;;;;;;;;;5087888;28;20260;-75
2022/06/14 09:26:40;;;;;;;5.35;2.30;;;;;;;;;;5060169;28;20202;-77
2022/06/14 09:29:27;;;;;;;4.35;2.30;;;;;;;;;;5076927;28;20212;-75
2022/06/14 09:32:00;;;;;;;4.80;2.55;;;;;;;;;;5015498;28;20232;-76
2022/06/14 09:34:46;;;;;;;4.47;2.70;;;;;;;;;;5077562;28;20228;-76
2022/06/14 09:37:19;;;;;;;5.45;2.80;;;;;;;;;;5086332;28;20219;-77
2022/06/14 09:39:47;;;;;;;7.32;2.60;;;;;;;;;;5078857;28;20197;-76
2022/06/14 09:42:23;;;;;;;9.20;2.45;;;;;;;;;;5077668;28;20428;-77
2022/06/14 09:45:10;;;;;;;4.80;2.60;;;;;;;;;;5077022;28;20255;-75
2022/06/14 09:47:40;;;;;;;4.60;2.42;;;;;;;;;;5059541;28;20205;-75
2022/06/14 09:50:08;;;;;;;6.78;2.75;;;;;;;;;;5060188;28;20721;-76
2022/06/14 09:52:54;;;;;;;4.28;2.70;;;;;;;;;;5077784;28;20221;-75
2022/06/14 09:55:27;;;;;;;4.90;2.45;;;;;;;;;;5076989;28;20202;-75
2022/06/14 09:58:16;;;;;;;5.15;2.60;;;;;;;;;;5077854;28;20209;-76
2022/06/14 10:00:44;;;;;;;5.70;2.50;;;;;;;;;;5077141;28;20235;-77
2022/06/14 10:03:12;;;;;;;3.15;2.15;;;;;;;;;;5076490;28;20238;-75
2022/06/14 10:05:45;;;;;;;3.92;2.10;;;;;;;;;;5076802;28;20339;-76
2022/06/14 10:08:16;;;;;;;4.90;1.98;;;;;;;;;;5095863;28;20192;-77
2022/06/14 10:10:58;;;;;;;2.80;2.30;;;;;;;;;;5095856;28;20262;-77
2022/06/14 10:13:44;;;;;;;9.10;5.15;;;;;;;;;;5097806;28;20501;-75
2022/06/14 10:16:12;;;;;;;5.32;2.28;;;;;;;;;;5098911;28;20639;-76
2022/06/14 10:18:42;;;;;;;3.38;2.40;;;;;;;;;;5097631;28;20215;-75
2022/06/14 10:21:14;;;;;;;3.03;2.10;;;;;;;;;;5079666;28;20205;-75
2022/06/14 10:24:06;;;;;;;3.35;2.00;;;;;;;;;;5096953;28;20231;-74
2022/06/14 10:29:32;;;;;;;4.45;2.10;;;;;;;;;;5095802;28;20354;-77
2022/06/14 10:32:00;;;;;;;2.60;1.90;;;;;;;;;;5085275;28;20241;-77
2022/06/14 10:34:37;;;;;;;3.03;2.35;;;;;;;;;;5075292;28;20212;-77
2022/06/14 10:37:23;;;;;;;3.35;1.98;;;;;;;;;;5082879;28;20258;-76
2022/06/14 10:40:17;;;;;;;2.25;1.90;;;;;;;;;;5095372;28;20604;-77
2022/06/14 10:42:51;;;;;;;3.80;1.98;;;;;;;;;;5077723;28;20229;-76
2022/06/14 10:45:18;;;;;;;2.55;1.90;;;;;;;;;;5095349;28;20220;-76
2022/06/14 10:47:48;;;;;;;3.53;2.05;;;;;;;;;;5094638;28;20233;-74
2022/06/14 10:50:31;;;;;;;3.10;2.08;;;;;;;;;;5095199;28;20266;-76
2022/06/14 10:53:17;;;;;;;1.95;1.67;;;;;;;;;;5077105;28;20220;-74
2022/06/14 10:56:02;;;;;;;5.18;2.17;;;;;;;;;;5095284;28;20205;-76
2022/06/14 10:58:36;;;;;;;3.13;2.00;;;;;;;;;;5095365;28;20205;-75
2022/06/14 11:01:35;;;;;;;6.57;2.28;;;;;;;;;;5093957;28;20209;-75
2022/06/14 11:04:05;;;;;;;2.47;2.20;;;;;;;;;;5040004;28;20205;-75
2022/06/14 11:06:59;;;;;;;4.32;1.90;;;;;;;;;;5090933;28;20193;-75
2022/06/14 11:09:26;;;;;;;3.47;2.03;;;;;;;;;;5075937;28;20196;-76
2022/06/14 11:12:06;;;;;;;3.88;2.28;;;;;;;;;;5094631;28;20220;-75
2022/06/14 11:14:58;;;;;;;2.92;2.05;;;;;;;;;;5093887;28;20235;-76
2022/06/14 11:17:37;;;;;;;3.05;1.92;;;;;;;;;;5094272;28;20800;-77
2022/06/14 11:20:23;;;;;;;2.95;2.35;;;;;;;;;;5093859;28;20238;-74
2022/06/14 11:23:02;;;;;;;3.15;1.90;;;;;;;;;;5082346;28;20647;-76
2022/06/14 11:25:40;;;;;;;4.30;1.98;;;;;;;;;;5071772;28;20649;-74
2022/06/14 11:28:28;;;;;;;3.28;1.80;;;;;;;;;;5070711;28;20208;-76
2022/06/14 11:31:07;;;;;;;5.93;1.92;;;;;;;;;;5020432;28;20245;-75
2022/06/14 11:33:48;;;;;;;4.13;2.30;;;;;;;;;;5051589;28;20235;-76
2022/06/14 11:36:24;;;;;;;3.20;2.20;;;;;;;;;;5072021;28;20216;-76
2022/06/14 11:39:17;;;;;;;3.38;2.00;;;;;;;;;;5073512;28;20666;-75
2022/06/14 11:41:46;;;;;;;3.15;2.08;;;;;;;;;;5053620;28;20209;-76
2022/06/14 11:44:20;;;;;;;3.90;2.30;;;;;;;;;;5073061;28;20546;-76
2022/06/14 11:47:11;;;;;;;3.60;2.20;;;;;;;;;;5072722;28;20200;-74
2022/06/14 11:49:41;;;;;;;2.88;2.08;;;;;;;;;;5065500;28;20205;-77
2022/06/14 11:52:12;;;;;;;5.00;2.28;;;;;;;;;;5072836;28;20217;-75
2022/06/14 11:55:00;;;;;;;2.60;2.20;;;;;;;;;;5072679;28;20201;-77
2022/06/14 11:57:30;;;;;;;4.35;2.30;;;;;;;;;;5063450;28;20592;-76
2022/06/14 12:00:21;;;;;;;1.70;1.60;;;;;;;;;;5071689;28;20201;-77
2022/06/14 12:03:19;;;;;;;2.85;1.83;;;;;;;;;;5072162;28;20229;-75
2022/06/14 12:06:08;;;;;;;2.13;1.80;;;;;;;;;;5075957;28;20225;-77
2022/06/14 12:08:39;;;;;;;3.08;1.88;;;;;;;;;;5088502;28;20193;-75
2022/06/14 12:11:26;;;;;;;2.70;1.98;;;;;;;;;;5076343;28;20222;-76
2022/06/14 12:14:12;;;;;;;3.38;2.03;;;;;;;;;;5083727;28;20229;-76
2022/06/14 12:16:49;;;;;;;5.60;2.17;;;;;;;;;;5073719;28;20590;-75
2022/06/14 12:19:16;;;;;;;3.80;2.00;;;;;;;;;;5073610;28;20213;-76
2022/06/14 12:21:57;;;;;;;4.95;1.90;;;;;;;;;;5073760;28;20239;-75
2022/06/14 12:27:19;;;;;;;3.10;1.60;;;;;;;;;;5073794;28;20193;-74
2022/06/14 12:29:50;;;;;;;1.77;1.65;;;;;;;;;;5071989;28;20292;-76
2022/06/14 12:32:21;;;;;;;3.15;1.75;;;;;;;;;;5089105;28;20229;-77
2022/06/14 12:34:56;;;;;;;5.30;2.08;;;;;;;;;;5070713;28;20261;-75
2022/06/14 12:37:26;;;;;;;4.47;1.92;;;;;;;;;;5088819;28;20613;-76
2022/06/14 12:39:57;;;;;;;2.85;1.80;;;;;;;;;;5089117;28;20204;-76
2022/06/14 12:42:24;;;;;;;3.55;2.00;;;;;;;;;;5088504;28;20228;-74
2022/06/14 12:44:55;;;;;;;4.03;2.30;;;;;;;;;;5088668;28;20662;-75
2022/06/14 12:47:43;;;;;;;5.28;2.80;;;;;;;;;;5071415;28;20231;-75
2022/06/14 12:50:16;;;;;;;3.83;2.30;;;;;;;;;;5089339;28;20537;-76
2022/06/14 12:52:46;;;;;;;4.38;2.22;;;;;;;;;;5089271;28;20227;-75
2022/06/14 12:55:18;;;;;;;3.30;2.10;;;;;;;;;;5089601;28;20205;-75
2022/06/14 12:57:46;;;;;;;3.42;2.72;;;;;;;;;;5089047;28;20209;-76
2022/06/14 13:00:13;;;;;;;3.85;2.45;;;;;;;;;;5091580;28;20418;-75
2022/06/14 13:02:40;;;;;;;3.47;2.28;;;;;;;;;;5091667;28;20494;-77
2022/06/14 13:05:11;;;;;;;2.70;1.90;;;;;;;;;;5086920;28;20852;-75
2022/06/14 13:07:41;;;;;;;2.55;1.98;;;;;;;;;;5091730;28;20616;-75
2022/06/14 13:10:27;;;;;;;3.60;1.90;;;;;;;;;;5092410;28;20193;-74
2022/06/14 13:13:19;;;;;;;2.30;1.75;;;;;;;;;;5090639;28;20224;-77
2022/06/14 13:16:04;;;;;;;3.03;1.83;;;;;;;;;;5093157;28;20619;-75
2022/06/14 13:18:32;;;;;;;4.68;2.25;;;;;;;;;;5092558;28;20238;-75
2022/06/14 13:21:02;;;;;;;5.57;2.60;;;;;;;;;;5089918;28;20675;-76
2022/06/14 13:23:35;;;;;;;4.70;2.05;;;;;;;;;;5072178;28;20605;-76
2022/06/14 13:26:09;;;;;;;18.25;3.30;;;;;;;;;;5072704;28;20243;-76
2022/06/14 13:28:46;;;;;;;7.85;2.30;;;;;;;;;;5055085;28;20205;-75
2022/06/14 13:31:32;;;;;;;3.65;1.90;;;;;;;;;;5072240;28;20667;-75
2022/06/14 13:34:05;;;;;;;3.78;1.98;;;;;;;;;;5055479;28;20237;-77
2022/06/14 13:36:33;;;;;;;3.55;2.30;;;;;;;;;;5073996;28;20231;-74
2022/06/14 13:39:20;;;;;;;3.10;2.20;;;;;;;;;;5073911;28;20201;-77
2022/06/14 13:42:03;;;;;;;3.65;2.35;;;;;;;;;;5092241;28;20258;-74
2022/06/14 13:44:36;;;;;;;3.75;2.25;;;;;;;;;;5073642;28;20201;-77
2022/06/14 13:47:08;;;;;;;3.28;2.10;;;;;;;;;;5092153;28;20535;-74
2022/06/14 13:49:41;;;;;;;4.00;3.10;;;;;;;;;;5092933;28;20254;-76
2022/06/14 13:52:10;;;;;;;2.83;1.95;;;;;;;;;;5094723;28;20217;-75
2022/06/14 13:55:07;;;;;;;3.38;2.10;;;;;;;;;;5095419;28;20268;-76
2022/06/14 13:57:56;;;;;;;3.55;1.73;;;;;;;;;;5021339;28;20207;-76
2022/06/14 14:00:36;;;;;;;3.10;2.17;;;;;;;;;;5076784;28;20322;-74
2022/06/14 14:03:04;;;;;;;5.32;1.95;;;;;;;;;;5076498;28;20233;-76
2022/06/14 14:05:33;;;;;;;3.63;1.98;;;;;;;;;;5084089;28;20308;-75
2022/06/14 14:08:14;;;;;;;5.40;2.13;;;;;;;;;;5077468;28;20573;-75
2022/06/14 14:10:44;;;;;;;3.40;1.88;;;;;;;;;;5095169;28;20197;-76
2022/06/14 14:13:34;;;;;;;4.20;1.88;;;;;;;;;;5083578;28;20225;-76
2022/06/14 14:16:04;;;;;;;3.70;2.03;;;;;;;;;;5075809;28;20213;-75
2022/06/14 14:18:39;;;;;;;4.28;2.17;;;;;;;;;;5075280;28;20205;-76
2022/06/14 14:21:24;;;;;;;2.67;2.03;;;;;;;;;;5075955;28;20770;-76
2022/06/14 14:23:51;;;;;;;2.03;1.73;;;;;;;;;;5075335;28;20244;-75
2022/06/14 14:26:24;;;;;;;2.67;1.80;;;;;;;;;;5076094;28;20225;-76
2022/06/14 14:28:54;;;;;;;1.95;1.85;;;;;;;;;;5076920;28;20236;-75
2022/06/14 14:31:42;;;;;;;3.15;2.00;;;;;;;;;;5075662;28;20198;-74
2022/06/14 14:34:12;;;;;;;3.92;2.17;;;;;;;;;;5074648;28;20284;-76
2022/06/14 14:36:49;;;;;;;4.20;2.03;;;;;;;;;;5079974;28;20285;-75
2022/06/14 14:39:24;;;;;;;2.10;1.80;;;;;;;;;;5095272;28;20290;-76
2022/06/14 14:41:56;;;;;;;2.22;1.70;;;;;;;;;;5095720;28;21920;-75
2022/06/14 14:44:36;;;;;;;3.67;1.90;;;;;;;;;;5077124;28;20209;-76
2022/06/14 14:47:03;;;;;;;3.42;1.63;;;;;;;;;;5094195;28;20232;-77
2022/06/14 14:49:33;;;;;;;3.97;1.88;;;;;;;;;;5075815;28;20716;-76
2022/06/14 14:52:13;;;;;;;3.05;1.90;;;;;;;;;;5089315;28;20356;-76
2022/06/14 14:54:41;;;;;;;2.60;1.83;;;;;;;;;;5089378;28;20215;-76
2022/06/14 14:57:14;;;;;;;3.72;1.67;;;;;;;;;;5071381;28;20186;-75
2022/06/14 14:59:56;;;;;;;2.80;1.58;;;;;;;;;;5090133;28;20625;-76
2022/06/14 15:05:38;;;;;;;4.50;1.75;;;;;;;;;;5078834;28;20267;-76
2022/06/14 15:08:06;;;;;;;2.30;1.70;;;;;;;;;;5088514;28;20291;-76
2022/06/14 15:10:51;;;;;;;4.18;1.92;;;;;;;;;;5087430;28;20196;-75
2022/06/14 15:13:31;;;;;;;3.08;1.88;;;;;;;;;;5088458;28;20706;-76
2022/06/14 15:15:59;;;;;;;2.13;1.45;;;;;;;;;;5089057;28;20579;-75
2022/06/14 15:21:23;;;;;;;2.20;1.67;;;;;;;;;;5088191;28;20740;-76
2022/06/14 15:23:58;;;;;;;2.15;1.60;;;;;;;;;;5088243;28;20224;-75
2022/06/14 15:26:27;;;;;;;3.63;1.70;;;;;;;;;;5088448;28;20236;-75
2022/06/14 15:28:57;;;;;;;2.83;1.90;;;;;;;;;;5088202;28;20552;-76
2022/06/14 15:31:24;;;;;;;4.85;1.70;;;;;;;;;;5089087;28;20307;-75
2022/06/14 15:34:01;;;;;;;4.05;1.90;;;;;;;;;;5088232;28;20258;-75
2022/06/14 15:36:28;;;;;;;2.63;1.73;;;;;;;;;;5088107;28;20212;-75
2022/06/14 15:39:04;;;;;;;2.83;2.00;;;;;;;;;;5086862;28;20423;-76
2022/06/14 15:41:36;;;;;;;2.38;1.58;;;;;;;;;;5088611;28;20356;-76
2022/06/14 15:44:03;;;;;;;5.55;2.10;;;;;;;;;;5088755;28;20213;-76
2022/06/14 15:46:33;;;;;;;2.15;1.60;;;;;;;;;;5088682;28;20233;-76